sensor_id;sensor_type;location;lat;lon;timestamp;pressure;altitude;pressure_sealevel;temperature;humidity
76022;BME280;64718;52.124;6.226;2022-12-07T00:01:31;101741.44;;;2.31;99.60
76022;BME280;64718;52.124;6.226;2022-12-07T00:04:00;101742.34;;;2.36;99.43
76022;BME280;64718;52.124;6.226;2022-12-07T00:06:30;101744.78;;;2.17;100.00
76022;BME280;64718;52.124;6.226;2022-12-07T00:08:57;101747.28;;;2.07;99.81
76022;BME280;64718;52.124;6.226;2022-12-07T00:11:25;101743.81;;;2.00;100.00
76022;BME280;64718;52.124;6.226;2022-12-07T00:13:53;101742.88;;;1.89;100.00
76022;BME280;64718;52.124;6.226;2022-12-07T00:16:22;101744.56;;;1.87;99.60
76022;BME280;64718;52.124;6.226;2022-12-07T00:18:49;101743.63;;;1.74;100.00
76022;BME280;64718;52.124;6.226;2022-12-07T00:21:17;101744.34;;;1.64;100.00
76022;BME280;64718;52.124;6.226;2022-12-07T00:23:46;101736.69;;;1.66;99.74
76022;BME280;64718;52.124;6.226;2022-12-07T00:26:16;101740.06;;;1.60;100.00
76022;BME280;64718;52.124;6.226;2022-12-07T00:28:46;101733.03;;;1.41;100.00
76022;BME280;64718;52.124;6.226;2022-12-07T00:31:14;101734.88;;;1.54;100.00
76022;BME280;64718;52.124;6.226;2022-12-07T00:33:41;101733.84;;;1.34;100.00
76022;BME280;64718;52.124;6.226;2022-12-07T00:36:09;101735.53;;;1.33;100.00
76022;BME280;64718;52.124;6.226;2022-12-07T00:38:37;101725.25;;;1.29;100.00
76022;BME280;64718;52.124;6.226;2022-12-07T00:41:06;101722.75;;;1.36;100.00
76022;BME280;64718;52.124;6.226;2022-12-07T00:43:33;101726.34;;;1.56;100.00
76022;BME280;64718;52.124;6.226;2022-12-07T00:46:01;101720.56;;;1.76;100.00
76022;BME280;64718;52.124;6.226;2022-12-07T00:48:29;101725.75;;;1.88;100.00
76022;BME280;64718;52.124;6.226;2022-12-07T00:50:56;101721.56;;;2.01;100.00
76022;BME280;64718;52.124;6.226;2022-12-07T00:53:23;101707.88;;;2.00;100.00
76022;BME280;64718;52.124;6.226;2022-12-07T00:55:49;101719.03;;;2.02;100.00
76022;BME280;64718;52.124;6.226;2022-12-07T00:58:17;101712.19;;;2.04;100.00
76022;BME280;64718;52.124;6.226;2022-12-07T01:00:44;101704.50;;;2.06;100.00
76022;BME280;64718;52.124;6.226;2022-12-07T01:03:13;101715.56;;;1.96;100.00
76022;BME280;64718;52.124;6.226;2022-12-07T01:05:49;101717.16;;;1.78;100.00
76022;BME280;64718;52.124;6.226;2022-12-07T01:08:16;101717.88;;;1.65;100.00
76022;BME280;64718;52.124;6.226;2022-12-07T01:10:42;101713.59;;;1.66;100.00
76022;BME280;64718;52.124;6.226;2022-12-07T01:13:09;101705.94;;;1.69;100.00
76022;BME280;64718;52.124;6.226;2022-12-07T01:15:39;101717.00;;;1.62;100.00
76022;BME280;64718;52.124;6.226;2022-12-07T01:18:05;101717.06;;;1.71;100.00
76022;BME280;64718;52.124;6.226;2022-12-07T01:20:33;101719.63;;;1.69;100.00
76022;BME280;64718;52.124;6.226;2022-12-07T01:22:59;101717.00;;;1.63;100.00
76022;BME280;64718;52.124;6.226;2022-12-07T01:25:26;101719.56;;;1.63;100.00
76022;BME280;64718;52.124;6.226;2022-12-07T01:27:53;101725.59;;;1.68;100.00
76022;BME280;64718;52.124;6.226;2022-12-07T01:30:19;101718.69;;;1.59;100.00
76022;BME280;64718;52.124;6.226;2022-12-07T01:32:46;101714.50;;;1.69;100.00
76022;BME280;64718;52.124;6.226;2022-12-07T01:35:12;101711.94;;;1.71;100.00
76022;BME280;64718;52.124;6.226;2022-12-07T01:37:40;101721.25;;;1.59;100.00
76022;BME280;64718;52.124;6.226;2022-12-07T01:40:08;101722.03;;;1.51;100.00
76022;BME280;64718;52.124;6.226;2022-12-07T01:42:34;101722.88;;;1.50;100.00
76022;BME280;64718;52.124;6.226;2022-12-07T01:48:12;101715.22;;;1.53;100.00
76022;BME280;64718;52.124;6.226;2022-12-07T01:50:42;101725.44;;;1.48;100.00
76022;BME280;64718;52.124;6.226;2022-12-07T01:53:11;101721.94;;;1.40;100.00
76022;BME280;64718;52.124;6.226;2022-12-07T01:55:42;101719.44;;;1.48;100.00
76022;BME280;64718;52.124;6.226;2022-12-07T01:58:11;101716.94;;;1.55;100.00
76022;BME280;64718;52.124;6.226;2022-12-07T02:00:38;101720.38;;;1.59;100.00
76022;BME280;64718;52.124;6.226;2022-12-07T02:03:08;101716.88;;;1.48;100.00
76022;BME280;64718;52.124;6.226;2022-12-07T02:05:37;101709.13;;;1.40;100.00
76022;BME280;64718;52.124;6.226;2022-12-07T02:08:05;101711.66;;;1.36;100.00
76022;BME280;64718;52.124;6.226;2022-12-07T02:10:33;101709.97;;;1.41;100.00
76022;BME280;64718;52.124;6.226;2022-12-07T02:13:02;101706.53;;;1.39;100.00
76022;BME280;64718;52.124;6.226;2022-12-07T02:15:38;101701.38;;;1.34;100.00
76022;BME280;64718;52.124;6.226;2022-12-07T02:18:12;101698.75;;;1.25;100.00
76022;BME280;64718;52.124;6.226;2022-12-07T02:20:50;101700.44;;;1.24;100.00
76022;BME280;64718;52.124;6.226;2022-12-07T02:23:47;101698.03;;;1.41;100.00
76022;BME280;64718;52.124;6.226;2022-12-07T02:26:37;101704.84;;;1.39;100.00
76022;BME280;64718;52.124;6.226;2022-12-07T02:29:19;101705.84;;;1.58;99.96
76022;BME280;64718;52.124;6.226;2022-12-07T02:31:55;101709.16;;;1.43;99.84
76022;BME280;64718;52.124;6.226;2022-12-07T02:34:29;101708.22;;;1.35;100.00
76022;BME280;64718;52.124;6.226;2022-12-07T02:37:00;101705.66;;;1.34;99.96
76022;BME280;64718;52.124;6.226;2022-12-07T02:39:32;101709.06;;;1.34;100.00
76022;BME280;64718;52.124;6.226;2022-12-07T02:42:03;101715.03;;;1.32;100.00
76022;BME280;64718;52.124;6.226;2022-12-07T02:44:36;101709.94;;;1.36;100.00
76022;BME280;64718;52.124;6.226;2022-12-07T02:47:05;101709.84;;;1.27;100.00
76022;BME280;64718;52.124;6.226;2022-12-07T02:49:33;101709.09;;;1.36;100.00
76022;BME280;64718;52.124;6.226;2022-12-07T02:52:01;101710.69;;;1.23;99.93
76022;BME280;64718;52.124;6.226;2022-12-07T02:54:28;101704.69;;;1.22;100.00
76022;BME280;64718;52.124;6.226;2022-12-07T02:57:00;101707.13;;;1.13;100.00
76022;BME280;64718;52.124;6.226;2022-12-07T02:59:40;101717.25;;;1.00;100.00
76022;BME280;64718;52.124;6.226;2022-12-07T03:02:18;101720.41;;;0.77;100.00
76022;BME280;64718;52.124;6.226;2022-12-07T03:05:02;101717.09;;;0.87;100.00
76022;BME280;64718;52.124;6.226;2022-12-07T03:07:42;101718.03;;;0.94;100.00
76022;BME280;64718;52.124;6.226;2022-12-07T03:10:17;101725.00;;;1.07;100.00
76022;BME280;64718;52.124;6.226;2022-12-07T03:12:53;101723.28;;;1.06;100.00
76022;BME280;64718;52.124;6.226;2022-12-07T03:15:29;101720.56;;;0.91;100.00
76022;BME280;64718;52.124;6.226;2022-12-07T03:17:59;101714.69;;;1.01;100.00
76022;BME280;64718;52.124;6.226;2022-12-07T03:20:27;101714.13;;;1.25;100.00
76022;BME280;64718;52.124;6.226;2022-12-07T03:22:56;101718.50;;;1.37;100.00
76022;BME280;64718;52.124;6.226;2022-12-07T03:25:24;101716.09;;;1.55;100.00
76022;BME280;64718;52.124;6.226;2022-12-07T03:27:55;101717.00;;;1.65;100.00
76022;BME280;64718;52.124;6.226;2022-12-07T03:30:28;101714.41;;;1.60;99.93
76022;BME280;64718;52.124;6.226;2022-12-07T03:32:59;101707.59;;;1.64;99.98
76022;BME280;64718;52.124;6.226;2022-12-07T03:35:31;101708.50;;;1.69;100.00
76022;BME280;64718;52.124;6.226;2022-12-07T03:38:08;101703.38;;;1.69;100.00
76022;BME280;64718;52.124;6.226;2022-12-07T03:40:42;101694.84;;;1.71;99.83
76022;BME280;64718;52.124;6.226;2022-12-07T03:43:11;101700.09;;;1.85;99.49
76022;BME280;64718;52.124;6.226;2022-12-07T03:45:41;101696.69;;;1.87;99.84
76022;BME280;64718;52.124;6.226;2022-12-07T03:48:17;101689.09;;;2.03;99.56
76022;BME280;64718;52.124;6.226;2022-12-07T03:50:50;101680.59;;;2.11;99.41
76022;BME280;64718;52.124;6.226;2022-12-07T03:53:21;101688.28;;;2.13;99.58
76022;BME280;64718;52.124;6.226;2022-12-07T03:55:49;101683.16;;;2.10;99.19
76022;BME280;64718;52.124;6.226;2022-12-07T03:58:19;101679.72;;;2.09;99.57
76022;BME280;64718;52.124;6.226;2022-12-07T04:00:48;101678.84;;;2.06;98.94
76022;BME280;64718;52.124;6.226;2022-12-07T04:03:15;101680.50;;;1.98;98.77
76022;BME280;64718;52.124;6.226;2022-12-07T04:05:43;101682.22;;;1.99;99.53
76022;BME280;64718;52.124;6.226;2022-12-07T04:08:10;101676.25;;;2.00;99.68
76022;BME280;64718;52.124;6.226;2022-12-07T04:10:37;101677.13;;;2.05;99.63
76022;BME280;64718;52.124;6.226;2022-12-07T04:13:03;101675.34;;;1.93;99.20
76022;BME280;64718;52.124;6.226;2022-12-07T04:15:30;101677.88;;;1.87;99.29
76022;BME280;64718;52.124;6.226;2022-12-07T04:17:58;101689.78;;;1.76;98.85
76022;BME280;64718;52.124;6.226;2022-12-07T04:20:24;101686.38;;;1.78;99.74
76022;BME280;64718;52.124;6.226;2022-12-07T04:22:51;101694.09;;;1.84;99.43
76022;BME280;64718;52.124;6.226;2022-12-07T04:25:17;101697.56;;;1.89;99.21
76022;BME280;64718;52.124;6.226;2022-12-07T04:27:44;101691.59;;;1.94;99.30
76022;BME280;64718;52.124;6.226;2022-12-07T04:30:11;101699.38;;;2.04;99.39
76022;BME280;64718;52.124;6.226;2022-12-07T04:32:37;101699.38;;;2.07;99.75
76022;BME280;64718;52.124;6.226;2022-12-07T04:35:06;101709.72;;;2.22;98.67
76022;BME280;64718;52.124;6.226;2022-12-07T04:37:33;101694.34;;;2.22;98.97
76022;BME280;64718;52.124;6.226;2022-12-07T04:40:00;101691.69;;;2.10;98.32
76022;BME280;64718;52.124;6.226;2022-12-07T04:42:26;101689.97;;;2.05;98.79
76022;BME280;64718;52.124;6.226;2022-12-07T04:44:53;101682.22;;;1.96;98.78
76022;BME280;64718;52.124;6.226;2022-12-07T04:47:19;101683.81;;;1.77;99.18
76022;BME280;64718;52.124;6.226;2022-12-07T04:49:46;101684.53;;;1.62;98.52
76022;BME280;64718;52.124;6.226;2022-12-07T04:52:14;101683.53;;;1.43;99.82
76022;BME280;64718;52.124;6.226;2022-12-07T04:54:40;101680.06;;;1.38;100.00
76022;BME280;64718;52.124;6.226;2022-12-07T04:57:07;101684.44;;;1.50;99.24
76022;BME280;64718;52.124;6.226;2022-12-07T04:59:33;101686.88;;;1.36;100.00
76022;BME280;64718;52.124;6.226;2022-12-07T05:02:00;101671.38;;;1.21;99.77
76022;BME280;64718;52.124;6.226;2022-12-07T05:04:26;101678.41;;;1.46;100.00
76022;BME280;64718;52.124;6.226;2022-12-07T05:06:53;101675.97;;;1.60;99.63
76022;BME280;64718;52.124;6.226;2022-12-07T05:09:21;101674.28;;;1.67;99.73
76022;BME280;64718;52.124;6.226;2022-12-07T05:11:47;101677.91;;;1.88;99.61
76022;BME280;64718;52.124;6.226;2022-12-07T05:14:18;101677.00;;;1.80;99.76
76022;BME280;64718;52.124;6.226;2022-12-07T05:16:47;101673.56;;;1.81;99.16
76022;BME280;64718;52.124;6.226;2022-12-07T05:19:15;101676.09;;;1.75;99.35
76022;BME280;64718;52.124;6.226;2022-12-07T05:21:41;101681.16;;;1.69;98.70
76022;BME280;64718;52.124;6.226;2022-12-07T05:24:10;101681.13;;;1.65;99.11
76022;BME280;64718;52.124;6.226;2022-12-07T05:26:39;101686.28;;;1.69;99.13
76022;BME280;64718;52.124;6.226;2022-12-07T05:29:05;101679.47;;;1.71;98.79
76022;BME280;64718;52.124;6.226;2022-12-07T05:31:32;101677.84;;;1.81;99.06
76022;BME280;64718;52.124;6.226;2022-12-07T05:34:00;101681.31;;;1.87;99.20
76022;BME280;64718;52.124;6.226;2022-12-07T05:36:26;101677.94;;;1.95;98.58
76022;BME280;64718;52.124;6.226;2022-12-07T05:38:56;101685.66;;;1.99;98.82
76022;BME280;64718;52.124;6.226;2022-12-07T05:41:22;101686.53;;;2.01;98.78
76022;BME280;64718;52.124;6.226;2022-12-07T05:44:08;101679.69;;;2.02;98.54
76022;BME280;64718;52.124;6.226;2022-12-07T05:46:34;101676.28;;;2.06;98.00
76022;BME280;64718;52.124;6.226;2022-12-07T05:49:02;101672.84;;;2.02;98.70
76022;BME280;64718;52.124;6.226;2022-12-07T05:51:28;101677.09;;;1.99;99.04
76022;BME280;64718;52.124;6.226;2022-12-07T05:53:55;101662.56;;;1.99;98.94
76022;BME280;64718;52.124;6.226;2022-12-07T05:56:21;101667.66;;;1.95;98.05
76022;BME280;64718;52.124;6.226;2022-12-07T05:58:48;101665.06;;;1.88;97.89
76022;BME280;64718;52.124;6.226;2022-12-07T06:01:33;101662.47;;;1.84;97.48
76022;BME280;64718;52.124;6.226;2022-12-07T06:04:00;101665.84;;;1.74;97.68
76022;BME280;64718;52.124;6.226;2022-12-07T06:06:26;101664.06;;;1.68;98.07
76022;BME280;64718;52.124;6.226;2022-12-07T06:08:53;101662.28;;;1.59;97.76
76022;BME280;64718;52.124;6.226;2022-12-07T06:11:20;101660.53;;;1.54;98.10
76022;BME280;64718;52.124;6.226;2022-12-07T06:14:04;101661.34;;;1.48;98.80
76022;BME280;64718;52.124;6.226;2022-12-07T06:16:30;101668.22;;;1.52;98.24
76022;BME280;64718;52.124;6.226;2022-12-07T06:18:58;101667.34;;;1.49;98.79
76022;BME280;64718;52.124;6.226;2022-12-07T06:21:24;101662.25;;;1.55;98.68
76022;BME280;64718;52.124;6.226;2022-12-07T06:23:52;101665.63;;;1.51;99.17
76022;BME280;64718;52.124;6.226;2022-12-07T06:26:18;101667.25;;;1.38;98.49
76022;BME280;64718;52.124;6.226;2022-12-07T06:28:45;101662.06;;;1.32;98.39
76022;BME280;64718;52.124;6.226;2022-12-07T06:31:11;101661.13;;;1.21;99.19
76022;BME280;64718;52.124;6.226;2022-12-07T06:33:38;101661.13;;;1.22;99.10
76022;BME280;64718;52.124;6.226;2022-12-07T06:36:06;101663.75;;;1.29;99.08
76022;BME280;64718;52.124;6.226;2022-12-07T06:38:33;101663.66;;;1.16;99.60
76022;BME280;64718;52.124;6.226;2022-12-07T06:41:00;101664.59;;;1.29;98.82
76022;BME280;64718;52.124;6.226;2022-12-07T06:43:26;101665.41;;;1.23;99.37
76022;BME280;64718;52.124;6.226;2022-12-07T06:45:53;101668.69;;;1.12;99.17
76022;BME280;64718;52.124;6.226;2022-12-07T06:48:20;101676.38;;;1.12;99.20
76022;BME280;64718;52.124;6.226;2022-12-07T06:50:47;101668.59;;;1.00;99.69
76022;BME280;64718;52.124;6.226;2022-12-07T06:53:15;101663.53;;;1.09;99.18
76022;BME280;64718;52.124;6.226;2022-12-07T06:55:41;101674.47;;;0.92;99.43
76022;BME280;64718;52.124;6.226;2022-12-07T06:58:08;101673.72;;;1.03;99.54
76022;BME280;64718;52.124;6.226;2022-12-07T07:00:34;101677.06;;;0.95;99.32
76022;BME280;64718;52.124;6.226;2022-12-07T07:03:01;101674.56;;;1.00;99.21
76022;BME280;64718;52.124;6.226;2022-12-07T07:05:28;101680.44;;;0.91;99.91
76022;BME280;64718;52.124;6.226;2022-12-07T07:07:54;101678.81;;;0.98;99.42
76022;BME280;64718;52.124;6.226;2022-12-07T07:10:22;101683.91;;;0.97;99.74
76022;BME280;64718;52.124;6.226;2022-12-07T07:12:48;101685.47;;;0.82;100.00
76022;BME280;64718;52.124;6.226;2022-12-07T07:15:15;101689.00;;;0.92;99.99
76022;BME280;64718;52.124;6.226;2022-12-07T07:17:42;101684.78;;;0.97;100.00
76022;BME280;64718;52.124;6.226;2022-12-07T07:20:10;101685.75;;;1.08;99.70
76022;BME280;64718;52.124;6.226;2022-12-07T07:22:36;101691.69;;;1.04;99.56
76022;BME280;64718;52.124;6.226;2022-12-07T07:25:03;101686.50;;;1.00;99.72
76022;BME280;64718;52.124;6.226;2022-12-07T07:27:31;101686.50;;;0.98;99.29
76022;BME280;64718;52.124;6.226;2022-12-07T07:29:58;101690.75;;;0.98;99.26
76022;BME280;64718;52.124;6.226;2022-12-07T07:32:24;101692.31;;;0.83;99.47
76022;BME280;64718;52.124;6.226;2022-12-07T07:34:51;101695.63;;;0.75;99.41
76022;BME280;64718;52.124;6.226;2022-12-07T07:37:17;101687.88;;;0.69;99.22
76022;BME280;64718;52.124;6.226;2022-12-07T07:39:44;101686.78;;;0.50;99.29
76022;BME280;64718;52.124;6.226;2022-12-07T07:42:10;101691.78;;;0.41;99.79
76022;BME280;64718;52.124;6.226;2022-12-07T07:44:38;101687.59;;;0.47;99.76
76022;BME280;64718;52.124;6.226;2022-12-07T07:47:05;101690.13;;;0.43;99.91
76022;BME280;64718;52.124;6.226;2022-12-07T07:49:31;101691.91;;;0.50;100.00
76022;BME280;64718;52.124;6.226;2022-12-07T07:51:58;101688.31;;;0.36;99.92
76022;BME280;64718;52.124;6.226;2022-12-07T07:54:24;101690.97;;;0.43;100.00
76022;BME280;64718;52.124;6.226;2022-12-07T07:56:51;101694.69;;;0.65;100.00
76022;BME280;64718;52.124;6.226;2022-12-07T07:59:18;101689.84;;;0.91;100.00
76022;BME280;64718;52.124;6.226;2022-12-07T08:01:46;101690.97;;;1.16;100.00
76022;BME280;64718;52.124;6.226;2022-12-07T08:04:13;101697.06;;;1.30;100.00
76022;BME280;64718;52.124;6.226;2022-12-07T08:06:39;101701.50;;;1.49;99.93
76022;BME280;64718;52.124;6.226;2022-12-07T08:09:07;101708.47;;;1.64;99.09
76022;BME280;64718;52.124;6.226;2022-12-07T08:11:34;101712.84;;;1.74;98.65
76022;BME280;64718;52.124;6.226;2022-12-07T08:14:01;101706.03;;;1.78;97.37
76022;BME280;64718;52.124;6.226;2022-12-07T08:16:28;101705.19;;;1.80;98.28
76022;BME280;64718;52.124;6.226;2022-12-07T08:18:55;101706.09;;;1.88;97.17
76022;BME280;64718;52.124;6.226;2022-12-07T08:21:22;101698.47;;;1.96;96.49
76022;BME280;64718;52.124;6.226;2022-12-07T08:23:49;101696.81;;;2.07;96.18
76022;BME280;64718;52.124;6.226;2022-12-07T08:26:16;101701.13;;;2.16;95.56
76022;BME280;64718;52.124;6.226;2022-12-07T08:28:43;101706.28;;;2.19;95.45
76022;BME280;64718;52.124;6.226;2022-12-07T08:31:12;101698.59;;;2.22;95.30
76022;BME280;64718;52.124;6.226;2022-12-07T08:33:40;101698.63;;;2.27;95.40
76022;BME280;64718;52.124;6.226;2022-12-07T08:36:11;101694.41;;;2.33;95.22
76022;BME280;64718;52.124;6.226;2022-12-07T08:38:39;101703.78;;;2.31;95.97
76022;BME280;64718;52.124;6.226;2022-12-07T08:41:07;101704.63;;;2.27;95.27
76022;BME280;64718;52.124;6.226;2022-12-07T08:43:34;101697.72;;;2.18;95.35
76022;BME280;64718;52.124;6.226;2022-12-07T08:46:06;101706.25;;;2.14;95.72
76022;BME280;64718;52.124;6.226;2022-12-07T08:48:37;101709.72;;;2.19;96.33
76022;BME280;64718;52.124;6.226;2022-12-07T08:51:05;101707.25;;;2.36;95.82
76022;BME280;64718;52.124;6.226;2022-12-07T08:53:34;101699.63;;;2.47;95.86
76022;BME280;64718;52.124;6.226;2022-12-07T08:56:01;101703.06;;;2.55;94.84
76022;BME280;64718;52.124;6.226;2022-12-07T08:58:28;101702.22;;;2.56;95.11
76022;BME280;64718;52.124;6.226;2022-12-07T09:00:54;101705.66;;;2.61;95.27
76022;BME280;64718;52.124;6.226;2022-12-07T09:03:21;101703.09;;;2.66;94.59
76022;BME280;64718;52.124;6.226;2022-12-07T09:05:48;101701.41;;;2.69;95.22
76022;BME280;64718;52.124;6.226;2022-12-07T09:08:15;101697.16;;;2.77;95.57
76022;BME280;64718;52.124;6.226;2022-12-07T09:10:43;101704.06;;;2.92;94.95
76022;BME280;64718;52.124;6.226;2022-12-07T09:13:09;101698.09;;;3.02;94.63
76022;BME280;64718;52.124;6.226;2022-12-07T09:15:36;101697.25;;;3.08;93.34
76022;BME280;64718;52.124;6.226;2022-12-07T09:18:02;101708.38;;;3.08;93.55
76022;BME280;64718;52.124;6.226;2022-12-07T09:20:29;101698.13;;;3.10;94.18
76022;BME280;64718;52.124;6.226;2022-12-07T09:22:56;101703.25;;;3.04;93.83
76022;BME280;64718;52.124;6.226;2022-12-07T09:25:22;101704.94;;;2.99;93.90
76022;BME280;64718;52.124;6.226;2022-12-07T09:27:55;101704.09;;;2.98;94.07
76022;BME280;64718;52.124;6.226;2022-12-07T09:30:22;101699.78;;;2.93;94.70
76022;BME280;64718;52.124;6.226;2022-12-07T09:32:48;101706.66;;;2.92;94.20
76022;BME280;64718;52.124;6.226;2022-12-07T09:35:15;101707.50;;;2.90;95.42
76022;BME280;64718;52.124;6.226;2022-12-07T09:37:43;101703.22;;;2.96;94.59
76022;BME280;64718;52.124;6.226;2022-12-07T09:40:10;101703.25;;;3.02;94.18
76022;BME280;64718;52.124;6.226;2022-12-07T09:42:39;101704.13;;;3.15;94.09
76022;BME280;64718;52.124;6.226;2022-12-07T09:45:11;101709.28;;;3.27;94.80
76022;BME280;64718;52.124;6.226;2022-12-07T09:47:40;101707.56;;;3.35;93.67
76022;BME280;64718;52.124;6.226;2022-12-07T09:50:12;101703.28;;;3.36;93.31
76022;BME280;64718;52.124;6.226;2022-12-07T09:52:40;101695.56;;;3.34;93.13
76022;BME280;64718;52.124;6.226;2022-12-07T09:55:13;101696.47;;;3.47;93.33
76022;BME280;64718;52.124;6.226;2022-12-07T09:57:39;101692.16;;;3.72;93.10
76022;BME280;64718;52.124;6.226;2022-12-07T10:00:12;101694.69;;;4.04;92.50
76022;BME280;64718;52.124;6.226;2022-12-07T10:02:41;101684.41;;;4.08;91.75
76022;BME280;64718;52.124;6.226;2022-12-07T10:05:13;101676.66;;;4.02;91.23
76022;BME280;64718;52.124;6.226;2022-12-07T10:07:40;101680.13;;;3.86;90.99
76022;BME280;64718;52.124;6.226;2022-12-07T10:10:14;101675.88;;;3.68;91.51
76022;BME280;64718;52.124;6.226;2022-12-07T10:12:54;101674.13;;;3.90;91.54
76022;BME280;64718;52.124;6.226;2022-12-07T10:15:22;101671.53;;;4.04;91.03
76022;BME280;64718;52.124;6.226;2022-12-07T10:17:51;101674.97;;;4.10;91.09
76022;BME280;64718;52.124;6.226;2022-12-07T10:20:22;101661.25;;;4.05;90.97
76022;BME280;64718;52.124;6.226;2022-12-07T10:23:00;101670.69;;;4.11;91.01
76022;BME280;64718;52.124;6.226;2022-12-07T10:25:29;101678.31;;;4.34;91.34
76022;BME280;64718;52.124;6.226;2022-12-07T10:27:59;101662.78;;;4.55;91.61
76022;BME280;64718;52.124;6.226;2022-12-07T10:30:28;101654.06;;;4.82;89.04
76022;BME280;64718;52.124;6.226;2022-12-07T10:32:54;101653.94;;;5.00;88.53
76022;BME280;64718;52.124;6.226;2022-12-07T10:35:24;101650.50;;;5.01;88.44
76022;BME280;64718;52.124;6.226;2022-12-07T10:37:52;101660.84;;;4.98;87.20
76022;BME280;64718;52.124;6.226;2022-12-07T10:40:26;101659.16;;;4.94;88.75
76022;BME280;64718;52.124;6.226;2022-12-07T10:43:17;101652.31;;;4.90;88.81
76022;BME280;64718;52.124;6.226;2022-12-07T10:46:07;101658.28;;;4.95;88.06
76022;BME280;64718;52.124;6.226;2022-12-07T10:48:42;101654.03;;;4.88;88.78
76022;BME280;64718;52.124;6.226;2022-12-07T10:51:20;101652.41;;;4.73;88.20
76022;BME280;64718;52.124;6.226;2022-12-07T10:53:57;101642.16;;;4.63;88.48
76022;BME280;64718;52.124;6.226;2022-12-07T10:56:39;101640.41;;;4.62;89.52
76022;BME280;64718;52.124;6.226;2022-12-07T10:59:26;101636.09;;;4.74;89.70
76022;BME280;64718;52.124;6.226;2022-12-07T11:02:10;101636.72;;;5.08;88.62
76022;BME280;64718;52.124;6.226;2022-12-07T11:04:43;101636.56;;;5.30;88.23
76022;BME280;64718;52.124;6.226;2022-12-07T11:07:22;101634.88;;;5.26;86.78
76022;BME280;64718;52.124;6.226;2022-12-07T11:10:02;101634.91;;;5.23;87.30
76022;BME280;64718;52.124;6.226;2022-12-07T11:12:42;101634.06;;;5.22;87.27
76022;BME280;64718;52.124;6.226;2022-12-07T11:15:18;101630.59;;;5.19;85.83
76022;BME280;64718;52.124;6.226;2022-12-07T11:17:55;101629.78;;;5.17;85.92
76022;BME280;64718;52.124;6.226;2022-12-07T11:20:36;101623.78;;;5.13;86.16
76022;BME280;64718;52.124;6.226;2022-12-07T11:23:13;101610.88;;;5.15;86.16
76022;BME280;64718;52.124;6.226;2022-12-07T11:25:51;101613.53;;;5.05;87.13
76022;BME280;64718;52.124;6.226;2022-12-07T11:28:31;101611.91;;;4.92;87.10
76022;BME280;64718;52.124;6.226;2022-12-07T11:31:12;101610.28;;;4.81;87.58
76022;BME280;64718;52.124;6.226;2022-12-07T11:33:44;101613.78;;;4.70;88.07
76022;BME280;64718;52.124;6.226;2022-12-07T11:36:28;101608.66;;;4.66;88.31
76022;BME280;64718;52.124;6.226;2022-12-07T11:39:00;101619.78;;;4.71;88.20
76022;BME280;64718;52.124;6.226;2022-12-07T11:41:29;101611.94;;;4.86;87.78
76022;BME280;64718;52.124;6.226;2022-12-07T11:44:00;101607.72;;;4.76;87.20
76022;BME280;64718;52.124;6.226;2022-12-07T11:46:42;101599.19;;;4.62;86.97
76022;BME280;64718;52.124;6.226;2022-12-07T11:49:14;101594.97;;;4.53;88.61
76022;BME280;64718;52.124;6.226;2022-12-07T11:51:45;101593.19;;;4.60;88.74
76022;BME280;64718;52.124;6.226;2022-12-07T11:54:16;101591.41;;;4.77;88.19
76022;BME280;64718;52.124;6.226;2022-12-07T11:56:48;101591.22;;;5.01;87.00
76022;BME280;64718;52.124;6.226;2022-12-07T11:59:19;101580.63;;;5.36;85.27
76022;BME280;64718;52.124;6.226;2022-12-07T12:01:55;101587.28;;;5.60;85.33
76022;BME280;64718;52.124;6.226;2022-12-07T12:04:32;101579.53;;;5.60;83.84
76022;BME280;64718;52.124;6.226;2022-12-07T12:07:00;101579.53;;;5.59;85.05
76022;BME280;64718;52.124;6.226;2022-12-07T12:09:29;101582.31;;;5.40;84.81
76022;BME280;64718;52.124;6.226;2022-12-07T12:12:24;101572.94;;;5.32;82.94
76022;BME280;64718;52.124;6.226;2022-12-07T12:15:10;101572.00;;;5.40;84.19
76022;BME280;64718;52.124;6.226;2022-12-07T12:18:05;101567.72;;;5.38;82.69
76022;BME280;64718;52.124;6.226;2022-12-07T12:20:40;101569.28;;;5.54;82.88
76022;BME280;64718;52.124;6.226;2022-12-07T12:23:13;101560.53;;;5.66;82.41
76022;BME280;64718;52.124;6.226;2022-12-07T12:25:45;101563.03;;;5.73;82.18
76022;BME280;64718;52.124;6.226;2022-12-07T12:28:23;101559.56;;;5.76;82.40
76022;BME280;64718;52.124;6.226;2022-12-07T12:31:05;101555.25;;;5.80;82.31
76022;BME280;64718;52.124;6.226;2022-12-07T12:33:34;101553.63;;;5.69;82.13
76022;BME280;64718;52.124;6.226;2022-12-07T12:36:21;101556.19;;;5.71;81.72
76022;BME280;64718;52.124;6.226;2022-12-07T12:38:49;101554.44;;;5.73;81.31
76022;BME280;64718;52.124;6.226;2022-12-07T12:44:40;101545.97;;;5.60;81.64
76022;BME280;64718;52.124;6.226;2022-12-07T12:50:18;101541.59;;;5.67;82.28
76022;BME280;64718;52.124;6.226;2022-12-07T12:52:53;101539.88;;;5.69;82.40
76022;BME280;64718;52.124;6.226;2022-12-07T12:58:35;101541.69;;;5.61;81.71
76022;BME280;64718;52.124;6.226;2022-12-07T13:04:34;101525.44;;;5.53;83.38
76022;BME280;64718;52.124;6.226;2022-12-07T13:07:04;101532.25;;;5.57;82.18
76022;BME280;64718;52.124;6.226;2022-12-07T13:09:34;101528.81;;;5.58;81.82
76022;BME280;64718;52.124;6.226;2022-12-07T13:12:04;101521.91;;;5.60;82.08
76022;BME280;64718;52.124;6.226;2022-12-07T13:14:56;101525.41;;;5.56;81.51
76022;BME280;64718;52.124;6.226;2022-12-07T13:18:03;101521.00;;;5.64;79.92
76022;BME280;64718;52.124;6.226;2022-12-07T13:20:57;101526.06;;;5.71;79.98
76022;BME280;64718;52.124;6.226;2022-12-07T13:23:26;101513.09;;;5.76;80.11
76022;BME280;64718;52.124;6.226;2022-12-07T13:26:00;101511.41;;;5.75;79.87
76022;BME280;64718;52.124;6.226;2022-12-07T13:28:34;101513.03;;;5.84;78.73
76022;BME280;64718;52.124;6.226;2022-12-07T13:31:27;101503.56;;;5.86;78.83